Time;durP1;ratioP1;P1;durP2;ratioP2;P2;SDS_P1;SDS_P2;PMS_P1;PMS_P2;Temp;Humidity;BMP_temperature;BMP_pressure;BME280_temperature;BME280_humidity;BME280_pressure;Samples;Min_cycle;Max_cycle;Signal;HPM_P1;HPM_P2
2022/01/22 00:01:09;;;;;;;;;;;13.30;96.90;;;;;;5071605;28;19925;-64
2022/01/22 00:03:36;;;;;;;;;;;13.10;96.70;;;;;;5071136;28;20020;-64
2022/01/22 00:06:01;;;;;;;;;;;13.30;96.90;;;;;;5071822;28;19924;-64
2022/01/22 00:08:27;;;;;;;;;;;13.30;96.90;;;;;;5072165;28;19982;-63
2022/01/22 00:10:53;;;;;;;;;;;13.10;96.80;;;;;;5071635;28;20267;-64
2022/01/22 00:15:45;;;;;;;;;;;13.00;96.80;;;;;;5070572;28;19931;-65
2022/01/22 00:18:10;;;;;;;;;;;13.20;96.80;;;;;;5114138;27;19922;-63
2022/01/22 00:20:39;;;;;;;;;;;13.00;96.80;;;;;;5176387;27;20375;-63
2022/01/22 00:23:05;;;;;;;;;;;13.40;96.90;;;;;;5176568;27;20356;-66
2022/01/22 00:25:30;;;;;;;;;;;13.30;96.80;;;;;;5171124;27;19930;-65
2022/01/22 00:27:56;;;;;;;;;;;13.60;96.90;;;;;;5156036;27;19927;-64
2022/01/22 00:30:22;;;;;;;;;;;13.40;96.80;;;;;;5163221;27;20006;-64
2022/01/22 00:32:48;;;;;;;;;;;13.30;96.80;;;;;;5178336;27;19923;-65
2022/01/22 00:35:14;;;;;;;;;;;13.30;96.80;;;;;;5180279;27;19968;-64
2022/01/22 00:37:40;;;;;;;;;;;;;;;;;;5164237;27;19923;-65
2022/01/22 00:40:06;;;;;;;;;;;13.20;96.80;;;;;;5159664;27;20279;-64
2022/01/22 00:42:33;;;;;;;;;;;13.20;96.70;;;;;;5168210;27;19919;-64
2022/01/22 00:44:59;;;;;;;;;;;13.20;96.80;;;;;;5180401;27;19953;-63
2022/01/22 00:47:25;;;;;;;;;;;13.30;96.80;;;;;;5179543;27;19922;-63
2022/01/22 00:49:50;;;;;;;;;;;13.30;96.80;;;;;;5179940;27;19925;-64
2022/01/22 00:52:16;;;;;;;;;;;13.40;96.80;;;;;;5178325;27;19927;-65
2022/01/22 00:54:42;;;;;;;;;;;13.20;96.70;;;;;;5180274;27;20415;-64
2022/01/22 00:57:07;;;;;;;;;;;13.10;96.70;;;;;;5146024;27;19923;-64
2022/01/22 00:59:33;;;;;;;;;;;13.50;96.90;;;;;;5159202;27;19923;-65
2022/01/22 01:01:59;;;;;;;;;;;13.40;96.80;;;;;;5158857;27;20017;-65
2022/01/22 01:04:25;;;;;;;;;;;13.50;96.80;;;;;;5160595;27;19929;-64
2022/01/22 01:06:51;;;;;;;;;;;13.20;96.70;;;;;;5159132;27;19923;-63
2022/01/22 01:09:17;;;;;;;;;;;13.10;96.70;;;;;;5159044;27;19934;-64
2022/01/22 01:11:51;;;;;;;;;;;13.30;96.80;;;;;;5159067;27;19923;-64
2022/01/22 01:14:24;;;;;;;;;;;13.30;96.80;;;;;;5147181;27;19922;-64
2022/01/22 01:32:10;;;;;;;;;;;;;;;;;;5159111;27;19918;-64
2022/01/22 01:34:16;;;;;;;;;;;13.20;96.70;;;;;;5158592;27;19923;-63
2022/01/22 01:36:42;;;;;;;;;;;13.20;96.60;;;;;;5174417;27;19923;-64
2022/01/22 01:39:11;;;;;;;;;;;13.30;96.60;;;;;;5178443;27;19930;-65
2022/01/22 01:44:11;;;;;;;;;;;13.30;96.70;;;;;;5179330;27;19945;-65
2022/01/22 01:46:47;;;;;;;;;;;13.20;96.60;;;;;;5172978;27;19927;-64
2022/01/22 01:49:12;;;;;;;;;;;13.50;96.70;;;;;;5179083;27;19922;-65
2022/01/22 01:51:38;;;;;;;;;;;13.40;96.60;;;;;;5178819;27;20422;-65
2022/01/22 01:54:23;;;;;;;;;;;13.40;96.60;;;;;;5179081;27;19974;-64
2022/01/22 01:59:34;;;;;;;;;;;13.30;96.60;;;;;;5176683;27;19975;-64
2022/01/22 02:02:00;;;;;;;;;;;;;;;;;;5178902;27;19922;-65
2022/01/22 02:04:25;;;;;;;;;;;13.30;96.60;;;;;;5178917;27;19974;-63
2022/01/22 02:06:51;;;;;;;;;;;13.50;96.70;;;;;;5176992;27;19930;-65
2022/01/22 02:09:17;;;;;;;;;;;13.60;96.70;;;;;;5178451;27;20406;-64
2022/01/22 02:11:44;;;;;;;;;;;;;;;;;;5178551;27;19964;-64
2022/01/22 02:25:10;;;;;;;;;;;13.30;96.70;;;;;;5113740;28;19924;-64
2022/01/22 02:27:36;;;;;;;;;;;13.40;96.70;;;;;;5112966;28;20313;-64
2022/01/22 02:30:02;;;;;;;;;;;13.20;96.60;;;;;;5113669;28;19924;-65
2022/01/22 02:35:28;;;;;;;;;;;13.20;96.60;;;;;;5113932;28;19924;-64
2022/01/22 02:38:02;;;;;;;;;;;13.20;96.60;;;;;;5113037;28;19944;-65
2022/01/22 02:40:42;;;;;;;;;;;13.60;96.30;;;;;;5113672;28;19924;-64
2022/01/22 02:43:10;;;;;;;;;;;13.60;96.70;;;;;;5113642;28;20311;-63
2022/01/22 02:45:35;;;;;;;;;;;13.50;96.60;;;;;;5113575;28;20414;-64
2022/01/22 02:48:01;;;;;;;;;;;13.40;96.60;;;;;;5101991;28;19950;-64
2022/01/22 02:50:26;;;;;;;;;;;13.50;96.70;;;;;;5111151;28;19923;-63
2022/01/22 02:52:52;;;;;;;;;;;13.60;96.70;;;;;;5113917;27;20301;-67
2022/01/22 02:55:18;;;;;;;;;;;13.70;96.80;;;;;;5178214;27;19923;-66
2022/01/22 02:57:44;;;;;;;;;;;13.30;96.60;;;;;;5158795;27;19923;-64
2022/01/22 03:00:11;;;;;;;;;;;13.60;96.70;;;;;;5131499;27;20005;-66
2022/01/22 03:02:37;;;;;;;;;;;13.20;96.60;;;;;;5121231;27;20460;-63
2022/01/22 03:05:03;;;;;;;;;;;13.30;96.60;;;;;;5157589;27;20380;-64
2022/01/22 03:07:29;;;;;;;;;;;13.60;96.70;;;;;;5158694;27;19952;-64
2022/01/22 03:10:00;;;;;;;;;;;13.50;96.70;;;;;;5175437;27;19961;-64
2022/01/22 03:18:16;;;;;;;;;;;13.40;96.70;;;;;;5161353;27;20382;-64
2022/01/22 03:29:32;;;;;;;;;;;13.40;96.60;;;;;;5137930;27;19924;-63
2022/01/22 03:31:41;;;;;;;;;;;13.20;96.60;;;;;;5151677;27;19971;-63
2022/01/22 03:34:07;;;;;;;;;;;13.20;96.50;;;;;;5137569;27;20380;-64
2022/01/22 03:36:34;;;;;;;;;;;13.40;96.60;;;;;;5154881;27;19923;-64
2022/01/22 03:39:00;;;;;;;;;;;13.30;96.50;;;;;;5153713;27;19923;-64
2022/01/22 03:41:25;;;;;;;;;;;13.60;96.20;;;;;;5141014;27;20344;-63
2022/01/22 03:43:51;;;;;;;;;;;13.40;96.40;;;;;;5133723;27;19930;-64
2022/01/22 03:46:17;;;;;;;;;;;;;;;;;;5134063;27;20006;-64
2022/01/22 03:48:43;;;;;;;;;;;13.60;96.60;;;;;;5133613;27;19963;-64
2022/01/22 03:51:08;;;;;;;;;;;13.40;96.50;;;;;;5146636;27;19929;-63
2022/01/22 03:53:34;;;;;;;;;;;13.50;96.60;;;;;;5155980;27;20024;-64
2022/01/22 03:56:04;;;;;;;;;;;13.50;96.60;;;;;;5136546;27;19931;-63
2022/01/22 03:58:31;;;;;;;;;;;13.30;96.50;;;;;;5134850;27;19928;-64
2022/01/22 04:01:24;;;;;;;;;;;13.50;96.60;;;;;;5135957;27;20345;-64
2022/01/22 04:03:55;;;;;;;;;;;13.40;96.60;;;;;;5134631;27;19923;-64
2022/01/22 04:09:00;;;;;;;;;;;13.70;96.70;;;;;;5135616;27;19930;-65
2022/01/22 04:11:26;;;;;;;;;;;13.50;96.60;;;;;;5136438;27;20019;-63
2022/01/22 04:13:57;;;;;;;;;;;;;;;;;;5156313;27;19962;-63
2022/01/22 04:16:23;;;;;;;;;;;;;;;;;;5155692;27;20281;-65
2022/01/22 04:27:13;;;;;;;;;;;13.30;96.60;;;;;;5155285;27;19930;-63
2022/01/22 04:29:39;;;;;;;;;;;13.40;96.60;;;;;;5155707;27;19945;-63
2022/01/22 04:32:04;;;;;;;;;;;13.60;96.70;;;;;;5155348;27;19923;-63
2022/01/22 04:34:30;;;;;;;;;;;13.40;96.60;;;;;;5156105;27;19923;-63
2022/01/22 04:36:55;;;;;;;;;;;13.50;96.60;;;;;;5155582;27;19934;-64
2022/01/22 04:39:22;;;;;;;;;;;13.40;96.50;;;;;;5155115;27;19924;-63
2022/01/22 04:41:49;;;;;;;;;;;13.30;96.50;;;;;;5155489;27;19923;-64
2022/01/22 04:44:15;;;;;;;;;;;13.70;96.60;;;;;;5144803;27;19930;-64
2022/01/22 04:49:13;;;;;;;;;;;13.40;96.50;;;;;;5154984;27;20017;-63
2022/01/22 04:57:08;;;;;;;;;;;13.50;96.50;;;;;;5176735;27;19923;-64
2022/01/22 04:59:33;;;;;;;;;;;13.50;96.50;;;;;;5176022;27;19930;-64
2022/01/22 05:01:59;;;;;;;;;;;13.60;96.60;;;;;;5175260;27;19922;-63
2022/01/22 05:04:24;;;;;;;;;;;13.40;96.50;;;;;;5176193;27;20311;-64
2022/01/22 05:06:50;;;;;;;;;;;13.30;96.40;;;;;;5156190;27;19931;-64
2022/01/22 05:09:16;;;;;;;;;;;13.60;96.50;;;;;;5155169;27;19934;-63
2022/01/22 05:11:41;;;;;;;;;;;13.40;96.50;;;;;;5136751;27;19923;-63
2022/01/22 05:14:07;;;;;;;;;;;13.20;96.50;;;;;;5155176;27;20015;-64
2022/01/22 05:16:32;;;;;;;;;;;13.60;96.60;;;;;;5166941;27;20380;-65
2022/01/22 05:19:09;;;;;;;;;;;13.40;96.50;;;;;;5159790;27;19923;-63
2022/01/22 05:21:37;;;;;;;;;;;13.40;96.60;;;;;;5171421;27;19974;-64
2022/01/22 05:24:07;;;;;;;;;;;13.30;96.60;;;;;;5174744;27;19919;-63
2022/01/22 05:36:58;;;;;;;;;;;13.50;96.70;;;;;;5177584;27;19930;-65
2022/01/22 05:39:24;;;;;;;;;;;;;;;;;;5139548;27;20017;-64
2022/01/22 05:41:50;;;;;;;;;;;13.50;96.60;;;;;;5139645;27;20342;-65
2022/01/22 05:44:16;;;;;;;;;;;13.50;96.60;;;;;;5122413;27;19923;-64
2022/01/22 05:46:41;;;;;;;;;;;13.70;96.60;;;;;;5156801;27;19945;-63
2022/01/22 05:49:07;;;;;;;;;;;13.50;96.60;;;;;;5158197;27;20013;-63
2022/01/22 05:51:34;;;;;;;;;;;13.40;96.60;;;;;;5178778;27;20390;-63
2022/01/22 06:01:53;;;;;;;;;;;13.60;96.70;;;;;;5138989;27;19923;-63
2022/01/22 06:04:19;;;;;;;;;;;13.60;96.40;;;;;;5157794;27;19975;-63
2022/01/22 06:06:45;;;;;;;;;;;13.70;96.70;;;;;;5138937;27;20333;-64
2022/01/22 06:09:10;;;;;;;;;;;13.60;96.70;;;;;;5160755;27;20346;-62
2022/01/22 06:11:51;;;;;;;;;;;13.50;96.60;;;;;;5145170;27;19961;-64
2022/01/22 06:14:17;;;;;;;;;;;13.40;96.60;;;;;;5157253;27;19922;-63
2022/01/22 06:16:43;;;;;;;;;;;13.60;96.70;;;;;;5159794;27;19922;-66
2022/01/22 06:19:09;;;;;;;;;;;13.40;96.60;;;;;;5159351;27;19930;-64
2022/01/22 06:21:34;;;;;;;;;;;13.80;96.70;;;;;;5178318;27;20427;-64
2022/01/22 06:24:00;;;;;;;;;;;13.40;96.60;;;;;;5157868;27;19918;-65
2022/01/22 06:26:25;;;;;;;;;;;13.40;96.60;;;;;;5159792;27;19971;-65
2022/01/22 06:28:51;;;;;;;;;;;13.40;96.60;;;;;;5176230;27;19930;-64
2022/01/22 06:31:17;;;;;;;;;;;13.30;96.60;;;;;;5178854;27;19923;-63
2022/01/22 06:33:42;;;;;;;;;;;13.60;96.70;;;;;;5152555;27;20018;-64
2022/01/22 06:36:08;;;;;;;;;;;13.50;96.60;;;;;;5104483;27;19923;-63
2022/01/22 06:38:34;;;;;;;;;;;13.60;96.70;;;;;;5138210;27;19923;-64
2022/01/22 06:43:44;;;;;;;;;;;;;;;;;;5156921;27;19919;-65
2022/01/22 06:46:10;;;;;;;;;;;13.50;96.60;;;;;;5157480;27;20373;-63
2022/01/22 06:48:37;;;;;;;;;;;13.60;96.60;;;;;;5157596;27;19930;-66
2022/01/22 06:51:02;;;;;;;;;;;13.80;96.60;;;;;;5157156;27;19953;-64
2022/01/22 06:53:28;;;;;;;;;;;13.60;96.60;;;;;;5138592;27;19919;-66
2022/01/22 06:56:00;;;;;;;;;;;13.40;96.50;;;;;;5168410;27;19973;-63
2022/01/22 06:58:26;;;;;;;;;;;13.50;96.50;;;;;;5177743;27;19927;-64
2022/01/22 07:00:51;;;;;;;;;;;13.50;96.50;;;;;;5176761;27;20375;-63
2022/01/22 07:03:17;;;;;;;;;;;13.60;96.60;;;;;;5177658;27;20017;-64
2022/01/22 07:05:43;;;;;;;;;;;;;;;;;;5172217;27;19943;-63
2022/01/22 07:08:09;;;;;;;;;;;13.40;96.50;;;;;;5137926;27;19923;-64
2022/01/22 07:10:34;;;;;;;;;;;13.40;96.60;;;;;;5156407;27;19930;-63
2022/01/22 07:13:00;;;;;;;;;;;13.50;96.60;;;;;;5156446;27;19930;-65
2022/01/22 07:15:25;;;;;;;;;;;13.60;96.70;;;;;;5156640;27;19931;-64
2022/01/22 07:17:51;;;;;;;;;;;13.40;96.60;;;;;;5172343;27;20276;-63
2022/01/22 07:20:25;;;;;;;;;;;13.70;96.70;;;;;;5177266;27;19923;-63
2022/01/22 07:23:01;;;;;;;;;;;13.70;96.60;;;;;;5177377;27;20277;-65
2022/01/22 07:25:27;;;;;;;;;;;13.50;96.60;;;;;;5177051;27;19923;-64
2022/01/22 07:27:52;;;;;;;;;;;13.40;96.60;;;;;;5164897;27;19930;-63
2022/01/22 07:30:18;;;;;;;;;;;13.50;96.70;;;;;;5159512;27;19975;-62
2022/01/22 07:32:45;;;;;;;;;;;;;;;;;;5171779;27;19923;-62
2022/01/22 07:35:11;;;;;;;;;;;;;;;;;;5162758;27;19923;-61
2022/01/22 07:37:36;;;;;;;;;;;13.40;96.50;;;;;;5155398;27;19931;-63
2022/01/22 07:40:06;;;;;;;;;;;13.80;96.70;;;;;;5174094;27;19974;-64
2022/01/22 07:42:32;;;;;;;;;;;13.40;96.50;;;;;;5155471;27;19926;-64
2022/01/22 07:44:58;;;;;;;;;;;13.60;96.50;;;;;;5168736;27;20408;-63
2022/01/22 07:47:23;;;;;;;;;;;13.80;96.60;;;;;;5162889;27;19923;-64
2022/01/22 07:49:49;;;;;;;;;;;13.40;96.50;;;;;;5171412;27;19922;-64
2022/01/22 07:52:15;;;;;;;;;;;13.50;96.60;;;;;;5161006;27;20425;-63
2022/01/22 07:54:40;;;;;;;;;;;13.60;96.60;;;;;;5164495;27;19930;-64
2022/01/22 07:57:06;;;;;;;;;;;13.30;96.50;;;;;;5167664;27;20360;-64
2022/01/22 07:59:33;;;;;;;;;;;13.40;96.60;;;;;;5166710;27;19930;-63
2022/01/22 08:01:59;;;;;;;;;;;13.40;96.60;;;;;;5157151;27;19984;-62
2022/01/22 08:04:25;;;;;;;;;;;13.30;96.60;;;;;;5159950;27;19922;-64
2022/01/22 08:06:53;;;;;;;;;;;13.40;96.60;;;;;;5176692;27;19967;-64
2022/01/22 08:09:19;;;;;;;;;;;13.50;96.70;;;;;;5170565;27;19983;-63
2022/01/22 08:11:45;;;;;;;;;;;13.30;96.60;;;;;;5155827;27;19923;-64
2022/01/22 08:14:10;;;;;;;;;;;13.30;96.60;;;;;;5170922;27;20366;-64
2022/01/22 08:16:36;;;;;;;;;;;13.70;96.70;;;;;;5172007;27;19942;-64
2022/01/22 08:19:02;;;;;;;;;;;13.50;96.70;;;;;;5155561;27;19923;-64
2022/01/22 08:21:28;;;;;;;;;;;13.70;96.80;;;;;;5155718;27;20276;-63
2022/01/22 08:23:53;;;;;;;;;;;13.50;96.70;;;;;;5160567;27;20328;-64
2022/01/22 08:26:24;;;;;;;;;;;13.40;96.60;;;;;;5158796;27;19996;-63
2022/01/22 08:29:00;;;;;;;;;;;13.60;96.70;;;;;;5162381;27;19923;-64
2022/01/22 08:36:37;;;;;;;;;;;13.50;96.70;;;;;;5136546;27;19923;-63
2022/01/22 08:39:03;;;;;;;;;;;13.60;96.70;;;;;;5139066;27;19923;-64
2022/01/22 08:41:28;;;;;;;;;;;13.60;96.70;;;;;;5136988;27;19946;-63
2022/01/22 08:43:54;;;;;;;;;;;13.60;96.60;;;;;;5165874;27;19954;-63
2022/01/22 08:46:20;;;;;;;;;;;;;;;;;;5135963;27;19937;-64
2022/01/22 08:48:46;;;;;;;;;;;13.60;96.60;;;;;;5172826;27;19961;-66
2022/01/22 08:51:12;;;;;;;;;;;;;;;;;;5137773;27;19930;-64
2022/01/22 08:53:38;;;;;;;;;;;13.70;96.60;;;;;;5161246;27;19929;-66
2022/01/22 08:56:05;;;;;;;;;;;13.80;96.70;;;;;;5148858;27;19922;-64
2022/01/22 08:58:31;;;;;;;;;;;13.70;96.70;;;;;;5141573;27;19948;-63
2022/01/22 09:00:57;;;;;;;;;;;13.70;96.70;;;;;;5138685;27;19927;-64
2022/01/22 09:03:23;;;;;;;;;;;13.60;96.70;;;;;;5140184;27;19919;-64
2022/01/22 09:05:49;;;;;;;;;;;;;;;;;;5142783;27;19931;-62
2022/01/22 09:08:15;;;;;;;;;;;13.80;96.80;;;;;;5156766;27;20380;-64
2022/01/22 09:10:41;;;;;;;;;;;;;;;;;;5142722;27;19919;-64
2022/01/22 09:13:07;;;;;;;;;;;;;;;;;;5158272;27;19923;-65
2022/01/22 09:15:32;;;;;;;;;;;13.60;96.70;;;;;;5143102;27;20023;-64
2022/01/22 09:17:58;;;;;;;;;;;13.80;96.70;;;;;;5150510;27;20006;-64
2022/01/22 09:20:43;;;;;;;;;;;13.60;96.70;;;;;;5165418;27;19930;-66
2022/01/22 09:23:09;;;;;;;;;;;13.80;96.80;;;;;;5139930;27;19973;-65
2022/01/22 09:25:35;;;;;;;;;;;13.50;96.70;;;;;;5158403;27;19927;-64
2022/01/22 09:28:01;;;;;;;;;;;13.60;96.70;;;;;;5159112;27;19945;-64
2022/01/22 09:30:27;;;;;;;;;;;13.70;96.70;;;;;;5164907;27;19956;-63
2022/01/22 09:32:56;;;;;;;;;;;13.60;96.60;;;;;;5160998;27;19923;-63
2022/01/22 09:35:22;;;;;;;;;;;;;;;;;;5171061;27;19937;-63
2022/01/22 09:37:48;;;;;;;;;;;13.70;96.60;;;;;;5163076;27;19923;-64
2022/01/22 09:40:13;;;;;;;;;;;13.80;96.70;;;;;;5171116;27;20296;-64
2022/01/22 09:42:39;;;;;;;;;;;13.80;96.80;;;;;;5160179;27;19930;-63
2022/01/22 09:45:05;;;;;;;;;;;14.00;96.80;;;;;;5175041;27;19926;-66
2022/01/22 09:47:31;;;;;;;;;;;13.90;96.70;;;;;;5173607;27;19930;-64
2022/01/22 09:49:57;;;;;;;;;;;13.80;96.70;;;;;;5139487;27;19923;-64
2022/01/22 09:52:22;;;;;;;;;;;13.90;96.70;;;;;;5141324;27;19983;-63
2022/01/22 09:54:48;;;;;;;;;;;13.90;96.60;;;;;;5150231;27;19922;-64
2022/01/22 09:57:14;;;;;;;;;;;13.80;96.60;;;;;;5157956;27;19923;-64
2022/01/22 09:59:40;;;;;;;;;;;13.80;96.60;;;;;;5169175;27;19923;-64
2022/01/22 10:02:15;;;;;;;;;;;13.60;96.50;;;;;;5166170;27;19995;-63
2022/01/22 10:04:41;;;;;;;;;;;13.80;96.60;;;;;;5089738;27;20323;-63
2022/01/22 10:07:17;;;;;;;;;;;13.80;96.60;;;;;;5155559;27;19923;-64
2022/01/22 10:09:56;;;;;;;;;;;13.70;96.50;;;;;;5161059;27;20556;-63
2022/01/22 10:12:23;;;;;;;;;;;13.60;96.50;;;;;;5167553;27;19923;-64
2022/01/22 10:15:21;;;;;;;;;;;13.60;96.40;;;;;;5169077;27;19958;-64
2022/01/22 10:17:48;;;;;;;;;;;13.90;96.50;;;;;;5073097;28;19924;-63
2022/01/22 10:20:14;;;;;;;;;;;;;;;;;;5072512;28;19924;-61
2022/01/22 10:22:43;;;;;;;;;;;13.90;96.50;;;;;;5073394;28;19978;-65
2022/01/22 10:25:18;;;;;;;;;;;14.20;96.50;;;;;;5073013;28;19974;-68
2022/01/22 10:27:45;;;;;;;;;;;14.20;96.50;;;;;;5073418;28;19930;-64
2022/01/22 10:30:13;;;;;;;;;;;;;;;;;;5076126;28;19920;-65
2022/01/22 10:35:10;;;;;;;;;;;;;;;;;;5072036;28;19989;-60
2022/01/22 10:37:36;;;;;;;;;;;14.10;96.30;;;;;;5057784;28;19924;-60
2022/01/22 10:40:21;;;;;;;;;;;14.10;96.40;;;;;;5072490;28;19925;-59
2022/01/22 10:42:47;;;;;;;;;;;13.80;96.20;;;;;;5070283;28;19935;-61
2022/01/22 10:45:22;;;;;;;;;;;13.90;96.30;;;;;;5072064;28;20353;-64
2022/01/22 10:47:47;;;;;;;;;;;14.20;96.40;;;;;;5087269;28;20374;-63
2022/01/22 10:50:17;;;;;;;;;;;13.90;96.40;;;;;;5082956;28;19931;-61
2022/01/22 10:52:47;;;;;;;;;;;14.10;96.40;;;;;;5083705;27;19967;-63
2022/01/22 10:55:13;;;;;;;;;;;14.10;96.40;;;;;;5170660;27;19927;-61
2022/01/22 10:57:38;;;;;;;;;;;14.00;96.40;;;;;;5156781;27;20018;-60
2022/01/22 11:00:04;;;;;;;;;;;14.20;96.40;;;;;;5157193;27;19991;-60
2022/01/22 11:02:36;;;;;;;;;;;14.30;96.40;;;;;;5161988;27;19922;-62
2022/01/22 11:05:02;;;;;;;;;;;14.10;96.40;;;;;;5155223;27;19930;-61
2022/01/22 11:07:28;;;;;;;;;;;14.30;96.50;;;;;;5177358;27;19923;-60
2022/01/22 11:09:54;;;;;;;;;;;14.10;96.40;;;;;;5173957;27;20029;-61
2022/01/22 11:12:19;;;;;;;;;;;14.00;96.40;;;;;;5120930;27;19923;-66
2022/01/22 11:14:45;;;;;;;;;;;14.20;96.40;;;;;;5155578;27;19927;-63
2022/01/22 11:17:11;;;;;;;;;;;14.10;96.30;;;;;;5156766;27;20368;-63
2022/01/22 11:19:37;;;;;;;;;;;14.30;96.30;;;;;;5160664;27;19922;-63
2022/01/22 11:22:04;;;;;;;;;;;14.10;96.30;;;;;;5156952;27;20404;-65
2022/01/22 11:24:29;;;;;;;;;;;14.30;96.30;;;;;;5151321;27;19923;-63
2022/01/22 11:26:56;;;;;;;;;;;14.40;96.40;;;;;;5150366;27;20380;-63
2022/01/22 11:29:22;;;;;;;;;;;14.10;96.30;;;;;;5168534;27;20296;-64
2022/01/22 11:31:47;;;;;;;;;;;14.10;96.10;;;;;;5156087;27;19959;-63
2022/01/22 11:34:14;;;;;;;;;;;14.20;96.10;;;;;;5140211;27;20020;-65
2022/01/22 11:36:42;;;;;;;;;;;14.30;96.20;;;;;;5140555;27;19958;-63
2022/01/22 11:39:08;;;;;;;;;;;14.50;96.30;;;;;;5171855;27;20427;-64
2022/01/22 11:41:33;;;;;;;;;;;14.30;96.30;;;;;;5144589;27;19973;-63
2022/01/22 11:44:16;;;;;;;;;;;14.40;96.20;;;;;;5175357;27;19919;-65
2022/01/22 11:46:44;;;;;;;;;;;14.60;96.30;;;;;;5169304;27;19930;-64
2022/01/22 11:49:17;;;;;;;;;;;14.50;96.00;;;;;;5163310;27;19961;-65
2022/01/22 11:51:46;;;;;;;;;;;14.40;96.20;;;;;;5156376;27;19923;-65
2022/01/22 11:54:12;;;;;;;;;;;14.40;96.20;;;;;;5171542;27;20001;-66
2022/01/22 11:56:58;;;;;;;;;;;14.40;96.20;;;;;;5172984;27;19924;-64
2022/01/22 11:59:28;;;;;;;;;;;14.30;96.10;;;;;;5171590;27;20276;-65
2022/01/22 12:02:03;;;;;;;;;;;14.00;96.10;;;;;;5159404;27;19923;-64
2022/01/22 12:04:38;;;;;;;;;;;14.50;96.20;;;;;;5169794;27;20391;-64
2022/01/22 12:07:04;;;;;;;;;;;14.30;95.90;;;;;;5173781;27;19937;-65
2022/01/22 12:09:32;;;;;;;;;;;14.30;96.10;;;;;;5163114;27;19919;-67
2022/01/22 12:14:54;;;;;;;;;;;14.40;96.10;;;;;;5167069;27;19927;-60
2022/01/22 12:17:40;;;;;;;;;;;14.30;96.10;;;;;;5168682;27;19970;-60
2022/01/22 12:20:19;;;;;;;;;;;14.30;96.10;;;;;;5167983;27;19949;-66
2022/01/22 12:22:44;;;;;;;;;;;14.20;96.10;;;;;;5167486;27;19930;-62
2022/01/22 12:25:16;;;;;;;;;;;14.30;96.10;;;;;;5161727;27;19923;-61
2022/01/22 12:27:47;;;;;;;;;;;14.30;96.10;;;;;;5166016;27;20040;-61
2022/01/22 12:30:13;;;;;;;;;;;14.50;96.20;;;;;;5163616;27;19923;-61
2022/01/22 12:32:43;;;;;;;;;;;14.50;96.20;;;;;;5168211;27;19941;-59
2022/01/22 12:35:09;;;;;;;;;;;14.50;96.30;;;;;;5173641;27;19924;-61
2022/01/22 12:37:40;;;;;;;;;;;14.10;96.20;;;;;;5159807;27;19931;-63
2022/01/22 12:40:06;;;;;;;;;;;;;;;;;;5142078;27;19927;-62
2022/01/22 12:42:51;;;;;;;;;;;14.50;96.30;;;;;;5160310;27;19923;-62
2022/01/22 12:45:17;;;;;;;;;;;14.40;96.30;;;;;;5163557;27;19923;-60
2022/01/22 12:47:47;;;;;;;;;;;14.40;96.30;;;;;;5159196;27;20010;-59
2022/01/22 12:50:12;;;;;;;;;;;14.10;96.30;;;;;;5175607;27;19929;-66
2022/01/22 12:52:41;;;;;;;;;;;14.30;96.30;;;;;;5164107;27;19923;-64
2022/01/22 12:55:26;;;;;;;;;;;14.40;96.40;;;;;;5165631;27;19923;-59
2022/01/22 12:57:52;;;;;;;;;;;14.30;96.30;;;;;;5144509;27;19923;-63
2022/01/22 13:00:19;;;;;;;;;;;14.40;96.40;;;;;;5147508;27;19946;-61
2022/01/22 13:02:50;;;;;;;;;;;14.00;96.30;;;;;;5168003;27;19933;-60
2022/01/22 13:05:17;;;;;;;;;;;14.30;96.40;;;;;;5160489;27;19926;-61
2022/01/22 13:07:52;;;;;;;;;;;14.50;96.40;;;;;;5161712;27;19930;-64
2022/01/22 13:10:17;;;;;;;;;;;14.60;96.40;;;;;;5159280;27;19923;-66
2022/01/22 13:12:43;;;;;;;;;;;;;;;;;;5150835;27;19923;-60
2022/01/22 13:15:12;;;;;;;;;;;;;;;;;;5175519;27;19929;-64
2022/01/22 13:17:38;;;;;;;;;;;14.50;96.50;;;;;;5170262;27;19924;-62
2022/01/22 13:20:04;;;;;;;;;;;14.40;96.50;;;;;;5160472;27;20371;-62
2022/01/22 13:22:34;;;;;;;;;;;14.40;96.40;;;;;;5160759;27;19968;-60
2022/01/22 13:25:17;;;;;;;;;;;14.30;96.50;;;;;;5169361;27;19953;-60
2022/01/22 13:27:43;;;;;;;;;;;14.30;96.50;;;;;;5174598;27;19954;-62
2022/01/22 13:30:10;;;;;;;;;;;14.10;96.50;;;;;;5141368;27;19923;-61
2022/01/22 13:35:43;;;;;;;;;;;14.60;96.50;;;;;;5167091;27;19923;-61
2022/01/22 13:40:33;;;;;;;;;;;14.40;96.30;;;;;;5165285;27;19922;-59
2022/01/22 13:48:17;;;;;;;;;;;;;;;;;;5076666;28;19956;-66
2022/01/22 13:50:43;;;;;;;;;;;14.40;96.00;;;;;;5088126;28;19924;-64
2022/01/22 13:53:09;;;;;;;;;;;;;;;;;;5066443;28;19920;-64
2022/01/22 13:55:35;;;;;;;;;;;14.60;96.00;;;;;;5074155;28;19928;-64
2022/01/22 13:58:00;;;;;;;;;;;14.40;96.00;;;;;;5057419;28;20286;-63
2022/01/22 14:00:26;;;;;;;;;;;14.40;95.90;;;;;;5089197;28;19924;-63
2022/01/22 14:03:20;;;;;;;;;;;14.40;95.90;;;;;;5094151;28;19931;-64
2022/01/22 14:05:46;;;;;;;;;;;;;;;;;;5082597;28;19924;-66
2022/01/22 14:08:12;;;;;;;;;;;14.50;95.80;;;;;;5074282;28;19925;-63
2022/01/22 14:10:40;;;;;;;;;;;14.40;95.80;;;;;;5092948;28;19924;-63
2022/01/22 14:13:09;;;;;;;;;;;14.50;95.80;;;;;;5093939;28;19928;-63
2022/01/22 14:15:37;;;;;;;;;;;14.50;95.80;;;;;;5076960;28;20275;-63
2022/01/22 14:18:14;;;;;;;;;;;14.20;95.70;;;;;;5093773;28;19928;-63
2022/01/22 14:20:55;;;;;;;;;;;14.50;95.80;;;;;;5093742;28;19936;-63
2022/01/22 14:23:24;;;;;;;;;;;14.70;95.90;;;;;;5155686;27;19923;-64
2022/01/22 14:25:56;;;;;;;;;;;14.20;95.70;;;;;;5170644;27;19952;-63
2022/01/22 14:28:36;;;;;;;;;;;14.30;95.70;;;;;;5158201;27;20006;-64
2022/01/22 14:31:02;;;;;;;;;;;14.40;95.70;;;;;;5169706;27;20404;-66
2022/01/22 14:33:39;;;;;;;;;;;14.20;95.60;;;;;;5173322;27;19923;-64
2022/01/22 14:36:05;;;;;;;;;;;14.30;95.70;;;;;;5141624;27;19923;-64
2022/01/22 14:38:45;;;;;;;;;;;14.40;95.70;;;;;;5167504;27;20015;-64
2022/01/22 14:46:26;;;;;;;;;;;;;;;;;;5159897;27;20333;-66
2022/01/22 14:48:52;;;;;;;;;;;14.40;95.70;;;;;;5174891;27;19923;-65
2022/01/22 14:51:17;;;;;;;;;;;14.50;95.70;;;;;;5175737;27;19929;-63
2022/01/22 14:53:43;;;;;;;;;;;14.40;95.80;;;;;;5158503;27;19923;-64
2022/01/22 14:56:08;;;;;;;;;;;14.30;95.70;;;;;;5156981;27;20001;-65
2022/01/22 14:58:36;;;;;;;;;;;;;;;;;;5143957;27;19949;-65
2022/01/22 15:01:02;;;;;;;;;;;14.50;95.80;;;;;;5163967;27;19991;-65
2022/01/22 15:03:27;;;;;;;;;;;14.50;95.90;;;;;;5176654;27;20359;-64
2022/01/22 15:05:53;;;;;;;;;;;14.30;95.90;;;;;;5166845;27;19922;-65
2022/01/22 15:08:19;;;;;;;;;;;14.30;95.90;;;;;;5177666;27;19923;-65
2022/01/22 15:10:44;;;;;;;;;;;14.30;95.90;;;;;;5127527;27;19931;-64
2022/01/22 15:13:10;;;;;;;;;;;14.20;95.90;;;;;;5150527;27;20018;-64
2022/01/22 15:15:41;;;;;;;;;;;14.30;95.90;;;;;;5157678;27;19923;-64
2022/01/22 15:18:12;;;;;;;;;;;14.30;96.00;;;;;;5171666;27;20299;-65
2022/01/22 15:20:38;;;;;;;;;;;14.30;96.00;;;;;;5147771;27;19930;-65
2022/01/22 15:23:03;;;;;;;;;;;14.40;96.10;;;;;;5139080;27;19923;-65
2022/01/22 15:25:29;;;;;;;;;;;14.40;96.10;;;;;;5148641;27;19923;-65
2022/01/22 15:27:55;;;;;;;;;;;14.40;95.90;;;;;;5160053;27;20295;-65
2022/01/22 15:30:23;;;;;;;;;;;14.20;96.10;;;;;;5169228;27;20013;-65
2022/01/22 15:33:18;;;;;;;;;;;14.50;96.20;;;;;;5139113;27;19923;-65
2022/01/22 15:35:44;;;;;;;;;;;14.20;96.20;;;;;;5124731;27;19930;-65
2022/01/22 15:38:09;;;;;;;;;;;14.40;96.30;;;;;;5137779;27;19923;-65
2022/01/22 15:40:35;;;;;;;;;;;14.30;96.30;;;;;;5156966;27;20345;-65
2022/01/22 15:43:01;;;;;;;;;;;;;;;;;;5138143;27;19958;-65
2022/01/22 15:45:28;;;;;;;;;;;14.30;96.40;;;;;;5138103;27;19930;-65
2022/01/22 15:47:54;;;;;;;;;;;;;;;;;;5160470;27;19954;-65
2022/01/22 15:50:20;;;;;;;;;;;14.00;96.40;;;;;;5166670;27;19931;-65
2022/01/22 15:52:46;;;;;;;;;;;14.10;96.40;;;;;;5169504;27;19946;-65
2022/01/22 15:55:11;;;;;;;;;;;14.00;96.40;;;;;;5163810;27;19922;-65
2022/01/22 15:57:38;;;;;;;;;;;14.00;96.40;;;;;;5173919;27;19930;-65
2022/01/22 16:00:05;;;;;;;;;;;14.10;96.50;;;;;;5157418;27;19923;-65
2022/01/22 16:02:30;;;;;;;;;;;14.00;96.50;;;;;;5162998;27;19937;-65
2022/01/22 16:04:58;;;;;;;;;;;14.20;96.60;;;;;;5161130;27;19923;-65
2022/01/22 16:07:24;;;;;;;;;;;14.20;96.60;;;;;;5137111;27;19923;-65
2022/01/22 16:09:50;;;;;;;;;;;14.20;96.70;;;;;;5167128;27;19930;-66
2022/01/22 16:12:17;;;;;;;;;;;14.30;96.70;;;;;;5138403;27;20300;-65
2022/01/22 16:14:43;;;;;;;;;;;14.30;96.70;;;;;;5165435;27;19923;-65
2022/01/22 16:17:08;;;;;;;;;;;14.20;96.80;;;;;;5148268;27;19923;-65
2022/01/22 16:19:35;;;;;;;;;;;14.30;96.80;;;;;;5137114;27;19934;-65
2022/01/22 16:22:01;;;;;;;;;;;14.00;96.70;;;;;;5150382;27;19927;-67
2022/01/22 16:24:28;;;;;;;;;;;;;;;;;;5146877;27;19918;-65
2022/01/22 16:26:54;;;;;;;;;;;14.10;96.80;;;;;;5154958;27;19923;-66
2022/01/22 16:29:20;;;;;;;;;;;14.10;96.90;;;;;;5155506;27;19945;-65